createdAt,value
2023-03-25T00:05:45.715Z,18.20
2023-03-25T00:13:51.558Z,17.30
2023-03-25T00:22:01.857Z,17.15
2023-03-25T00:30:08.753Z,14.48
2023-03-25T00:38:17.074Z,14.07
2023-03-25T00:46:23.817Z,13.30
2023-03-25T00:54:34.546Z,11.45
2023-03-25T01:02:40.968Z,11.30
2023-03-25T01:10:51.455Z,11.35
2023-03-25T01:18:57.527Z,10.10
2023-03-25T01:27:06.707Z,11.13
2023-03-25T01:35:13.852Z,11.05
2023-03-25T01:43:22.309Z,11.38
2023-03-25T01:51:32.096Z,9.55
2023-03-25T01:59:41.323Z,9.90
2023-03-25T02:07:50.612Z,7.68
2023-03-25T02:16:20.620Z,7.18
2023-03-25T02:25:07.822Z,7.20
2023-03-25T02:33:49.045Z,6.88
2023-03-25T02:42:03.403Z,7.03
2023-03-25T02:50:13.190Z,6.85
2023-03-25T02:58:24.742Z,6.53
2023-03-25T03:06:32.187Z,6.38
2023-03-25T03:15:00.783Z,6.57
2023-03-25T03:23:12.624Z,7.88
2023-03-25T03:31:48.302Z,10.75
2023-03-25T03:40:04.678Z,10.57
2023-03-25T03:48:18.735Z,9.43
2023-03-25T03:56:28.511Z,9.95
2023-03-25T04:04:39.062Z,9.60
2023-03-25T04:12:47.948Z,11.00
2023-03-25T04:20:56.027Z,9.73
2023-03-25T04:29:02.105Z,9.60
2023-03-25T04:37:10.523Z,9.88
2023-03-25T04:45:17.222Z,9.05
2023-03-25T04:53:25.647Z,9.35
2023-03-25T05:01:33.440Z,7.28
2023-03-25T05:09:41.660Z,7.38
2023-03-25T05:17:47.803Z,7.90
2023-03-25T05:25:56.773Z,7.22
2023-03-25T05:34:08.794Z,8.38
2023-03-25T05:42:17.104Z,7.15
2023-03-25T05:50:22.831Z,7.00
2023-03-25T05:58:32.752Z,7.50
2023-03-25T06:06:38.392Z,6.95
2023-03-25T06:14:47.089Z,6.90
2023-03-25T06:22:55.315Z,7.70
2023-03-25T06:31:07.520Z,7.22
2023-03-25T06:39:14.481Z,7.45
2023-03-25T06:47:22.903Z,6.95
2023-03-25T06:55:28.739Z,6.70
2023-03-25T07:03:37.354Z,6.28
2023-03-25T07:12:34.966Z,7.30
2023-03-25T07:21:07.953Z,6.87
2023-03-25T07:29:19.281Z,5.75
2023-03-25T07:37:27.382Z,5.68
2023-03-25T07:45:43.511Z,6.55
2023-03-25T07:53:53.084Z,5.95
2023-03-25T08:02:01.193Z,6.38
2023-03-25T08:10:10.866Z,5.70
2023-03-25T08:18:16.480Z,5.32
2023-03-25T08:26:24.555Z,5.38
2023-03-25T08:34:40.382Z,5.20
2023-03-25T08:42:48.539Z,5.25
2023-03-25T08:50:55.523Z,5.38
2023-03-25T08:59:03.668Z,5.82
2023-03-25T09:07:12.664Z,5.50
2023-03-25T09:15:21.632Z,4.60
2023-03-25T09:23:33.935Z,4.95
2023-03-25T09:31:46.368Z,4.63
2023-03-25T09:39:52.160Z,3.83
2023-03-25T09:48:06.549Z,2.63
2023-03-25T09:56:19.528Z,2.45
2023-03-25T10:05:14.154Z,2.90
2023-03-25T10:13:27.661Z,2.17
2023-03-25T10:21:43.037Z,2.50
2023-03-25T10:29:54.995Z,3.08
2023-03-25T10:38:14.231Z,3.20
2023-03-25T10:46:29.677Z,2.80
2023-03-25T10:54:41.937Z,3.20
2023-03-25T11:02:48.789Z,2.87
2023-03-25T11:11:01.285Z,3.33
2023-03-25T11:19:08.912Z,3.08
2023-03-25T11:27:21.935Z,4.15
2023-03-25T11:35:29.981Z,3.05
2023-03-25T11:43:40.394Z,3.60
2023-03-25T11:51:47.423Z,3.00
2023-03-25T12:00:11.093Z,3.67
2023-03-25T12:08:19.982Z,3.45
2023-03-25T12:16:39.350Z,2.22
2023-03-25T12:25:08.312Z,2.42
2023-03-25T12:33:31.988Z,2.92
2023-03-25T12:41:51.695Z,2.25
2023-03-25T12:50:34.271Z,3.13
2023-03-25T12:59:05.621Z,3.10
2023-03-25T13:07:17.121Z,2.47
2023-03-25T13:15:27.596Z,2.45
2023-03-25T13:23:39.052Z,2.75
2023-03-25T13:31:48.586Z,2.83
2023-03-25T13:40:14.553Z,2.30
2023-03-25T13:48:24.215Z,2.28
2023-03-25T13:57:13.393Z,4.68
2023-03-25T14:06:05.026Z,4.65
2023-03-25T14:14:18.802Z,5.35
2023-03-25T14:22:27.342Z,5.15
2023-03-25T14:30:36.653Z,4.65
2023-03-25T14:39:00.205Z,4.85
2023-03-25T14:47:32.289Z,5.50
2023-03-25T14:55:43.882Z,5.57
2023-03-25T15:03:52.700Z,5.18
2023-03-25T15:12:00.762Z,5.13
2023-03-25T15:20:38.706Z,5.50
2023-03-25T15:29:04.616Z,4.57
2023-03-25T15:37:46.685Z,4.97
2023-03-25T15:46:26.267Z,4.22
2023-03-25T15:54:48.362Z,3.53
2023-03-25T16:03:02.065Z,2.72
2023-03-25T16:11:28.986Z,2.20
2023-03-25T16:19:41.872Z,1.50
2023-03-25T16:27:54.133Z,1.30
2023-03-25T16:36:02.288Z,1.67
2023-03-25T16:44:16.656Z,1.30
2023-03-25T16:52:26.758Z,1.80
2023-03-25T17:00:45.819Z,1.60
2023-03-25T17:08:53.774Z,1.52
2023-03-25T17:17:06.118Z,1.40
2023-03-25T17:25:28.470Z,2.15
2023-03-25T17:33:39.943Z,2.30
2023-03-25T17:41:45.674Z,2.17
2023-03-25T17:49:56.716Z,2.30
2023-03-25T17:58:02.286Z,5.05
2023-03-25T18:06:11.210Z,5.60
2023-03-25T18:14:17.001Z,6.07
2023-03-25T18:22:28.631Z,3.40
2023-03-25T18:30:41.243Z,4.20
2023-03-25T18:38:52.555Z,2.17
2023-03-25T18:47:00.168Z,2.95
2023-03-25T18:55:09.607Z,3.53
2023-03-25T19:03:15.647Z,3.72
2023-03-25T19:11:23.802Z,3.60
2023-03-25T19:19:29.401Z,2.58
2023-03-25T19:27:40.001Z,2.95
2023-03-25T19:35:54.503Z,3.15
2023-03-25T19:44:02.732Z,2.70
2023-03-25T19:52:09.355Z,3.25
2023-03-25T20:00:26.809Z,2.67
2023-03-25T20:08:32.998Z,2.88
2023-03-25T20:16:41.380Z,2.38
2023-03-25T20:24:47.761Z,4.03
2023-03-25T20:32:57.357Z,4.40
2023-03-25T20:41:03.822Z,5.47
2023-03-25T20:49:13.401Z,5.05
2023-03-25T20:57:19.438Z,5.22
2023-03-25T21:05:28.634Z,5.72
2023-03-25T21:13:36.380Z,6.10
2023-03-25T21:21:44.469Z,7.05
2023-03-25T21:29:50.261Z,8.57
2023-03-25T21:38:01.169Z,8.25
2023-03-25T21:46:10.506Z,3.50
2023-03-25T21:54:22.293Z,2.80
2023-03-25T22:02:30.107Z,3.17
2023-03-25T22:10:38.366Z,3.17
2023-03-25T22:18:44.255Z,2.60
2023-03-25T22:26:55.025Z,1.90
2023-03-25T22:35:00.583Z,2.95
2023-03-25T22:43:11.058Z,1.70
2023-03-25T22:51:18.597Z,1.70
2023-03-25T22:59:26.988Z,1.13
2023-03-25T23:07:35.488Z,1.38
2023-03-25T23:15:43.607Z,1.58
2023-03-25T23:23:53.401Z,2.13
2023-03-25T23:32:02.215Z,2.00
2023-03-25T23:40:12.938Z,2.75
2023-03-25T23:48:23.385Z,2.33
2023-03-25T23:56:28.882Z,2.25
